Kondopoga, Russia
Current Conditions -  °F | °C
As of 10:00 AM on Friday 19 Dec 2014 (Local Time) from ULPB Reporting Station
Overcast Overcast  
Wind Chill: 30°   Ceiling: 1700
Heat Index: 30°   Visibility: 6mi
Dew Point: 30°   Wind: 2mph
Humidity: 100%   Direction: NA
Pressure: 29.32"   Gusts: NA
Location:  62.2°N, 34.28°E
Report Text: ULPB 190700Z VRB01MPS 9999 BKN017 OVC070 M01/M01 Q0993 NOSIGRMK QFE741/0988 SC040
Loading
Personal Weather Stations






























Interactive Weather Map New forecast layout! Learn more

10-Day Weather Forecast

Advertisements
Track Severe Weather on mobile